Portada
METAR-TAF:

METAR-TAF

Aeroports :

Aeroport Internacional Quatro de Fevereiro

Luanda, Angola

latitud: 08-51S, longitud: 013-14E, altitud: 74 m

METAR: manca

Hora: 19:37 (18:37 UTC)

Pronòstic

L'informe es va fer fa 1 hora i 37 minuts, a les 17:00 UTC
Pronòstic vàlid del 19 a les 18 UTC al 20 a les 24 UTC
Vent 10 kt del Sud-Oest
Visibilitat: 9000 m
Cel ennuvolat a una alçada de 2000 ft
Temporalment
l' 20 a les 01 UTC al 20 a les 07 UTC
Vent 5 kt del Sud-Est
Cel cobert a una alçada de 1000 ft

TAF: FNLU 191700Z 1918/2024 22010KT 9000 BKN020 TEMPO 2001/2007 13005KT4500 OVC010

Observacions i pronòstics meteorològics de més de 4000 aeroports (METAR i TAF).

Les estacions disponibles són els punts grocs i vermells al mapa.

Posi el ratolí al punt desitjat per veure el nom de l'estació.

Feu clic per veure les observacions i els pronòstics meteorològics.

Per canviar el mapa: feu clic els botons verds amb una creu de color negre per apropar; al botó verd amb un guió per allunyar la imatge; o en les fletxes verdes per a mapes adjacents.


METAR-TAF: